createdAt,value
2017-09-23T00:00:15.713Z,0
2017-09-23T00:01:15.344Z,0
2017-09-23T00:02:15.364Z,0
2017-09-23T00:03:16.350Z,0
2017-09-23T00:04:16.148Z,0
2017-09-23T00:05:16.169Z,0
2017-09-23T00:06:16.187Z,0
2017-09-23T00:07:16.293Z,0
2017-09-23T00:08:15.796Z,0
2017-09-23T00:09:15.492Z,0
2017-09-23T00:10:16.273Z,0
2017-09-23T00:11:16.189Z,0
2017-09-23T00:12:16.199Z,0
2017-09-23T00:13:15.931Z,0
2017-09-23T00:14:15.274Z,0
2017-09-23T00:15:16.256Z,0
2017-09-23T00:16:16.031Z,0
2017-09-23T00:17:16.040Z,0
2017-09-23T00:18:16.413Z,0
2017-09-23T00:19:16.167Z,0
2017-09-23T00:20:15.844Z,0
2017-09-23T00:21:16.161Z,0
2017-09-23T00:22:16.151Z,0
2017-09-23T00:23:16.095Z,0
2017-09-23T00:24:15.460Z,0
2017-09-23T00:25:15.816Z,0
2017-09-23T00:26:16.463Z,0
2017-09-23T00:27:16.813Z,0
2017-09-23T00:28:16.502Z,0
2017-09-23T00:29:16.268Z,0
2017-09-23T00:30:15.900Z,0
2017-09-23T00:31:16.017Z,0
2017-09-23T00:32:16.259Z,0
2017-09-23T00:33:16.290Z,0
2017-09-23T00:34:16.668Z,0
2017-09-23T00:35:15.989Z,0
2017-09-23T00:36:16.010Z,0
2017-09-23T00:37:16.677Z,0
2017-09-23T00:38:16.695Z,0
2017-09-23T00:39:16.389Z,0
2017-09-23T00:40:16.744Z,0
2017-09-23T00:41:17.166Z,0
2017-09-23T00:42:16.884Z,0
2017-09-23T00:43:16.910Z,0
2017-09-23T00:44:16.495Z,0
2017-09-23T00:45:16.186Z,0
2017-09-23T00:46:16.211Z,0
2017-09-23T00:47:17.189Z,0
2017-09-23T00:48:17.208Z,0
2017-09-23T00:49:16.253Z,0
2017-09-23T00:50:16.927Z,0
2017-09-23T00:51:16.622Z,0
2017-09-23T00:52:29.700Z,0
2017-09-23T00:53:17.311Z,0
2017-09-23T00:54:17.048Z,0
2017-09-23T00:55:17.345Z,0
2017-09-23T00:56:17.050Z,0
2017-09-23T00:57:16.743Z,0
2017-09-23T00:58:16.432Z,0
2017-09-23T00:59:16.454Z,0
2017-09-23T01:00:17.115Z,0
2017-09-23T01:01:16.293Z,0
2017-09-23T01:02:17.021Z,0
2017-09-23T01:03:17.065Z,0
2017-09-23T01:04:16.552Z,0
2017-09-23T01:05:17.203Z,0
2017-09-23T01:06:16.901Z,0
2017-09-23T01:07:17.019Z,0
2017-09-23T01:08:17.609Z,0
2017-09-23T01:09:17.289Z,0
2017-09-23T01:10:16.657Z,0
2017-09-23T01:11:17.033Z,0
2017-09-23T01:12:16.370Z,0
2017-09-23T01:13:17.683Z,0
2017-09-23T01:14:17.941Z,0
2017-09-23T01:15:32.286Z,0
2017-09-23T01:16:17.420Z,0
2017-09-23T01:17:17.136Z,0
2017-09-23T01:18:17.139Z,0
2017-09-23T01:19:16.839Z,0
2017-09-23T01:20:16.849Z,0
2017-09-23T01:21:17.522Z,0
2017-09-23T01:22:17.219Z,0
2017-09-23T01:23:16.907Z,0
2017-09-23T01:24:17.980Z,0
2017-09-23T01:25:17.927Z,0
2017-09-23T01:26:17.494Z,0
2017-09-23T01:27:17.630Z,0
2017-09-23T01:28:16.999Z,0
2017-09-23T01:29:17.053Z,0
2017-09-23T01:30:17.684Z,0
2017-09-23T01:31:17.698Z,0
2017-09-23T01:32:17.413Z,0
2017-09-23T01:33:18.105Z,0
2017-09-23T01:34:17.441Z,0
2017-09-23T01:35:17.969Z,0
2017-09-23T01:36:17.778Z,0
2017-09-23T01:37:18.061Z,0
2017-09-23T01:38:17.611Z,0
2017-09-23T01:39:17.621Z,0
2017-09-23T01:40:17.941Z,0
2017-09-23T01:41:17.568Z,0
2017-09-23T01:42:17.950Z,0
2017-09-23T01:43:17.948Z,0
2017-09-23T01:44:16.971Z,0
2017-09-23T01:45:17.316Z,0
2017-09-23T01:46:17.347Z,0
2017-09-23T01:47:18.104Z,0
2017-09-23T01:48:18.101Z,0
2017-09-23T01:49:17.389Z,0
2017-09-23T01:50:17.413Z,0
2017-09-23T01:51:17.438Z,0
2017-09-23T01:52:18.106Z,0
2017-09-23T01:53:17.806Z,0
2017-09-23T01:54:17.806Z,0
2017-09-23T01:55:18.158Z,0
2017-09-23T01:56:17.946Z,0
2017-09-23T01:57:17.577Z,0
2017-09-23T01:58:17.895Z,0
2017-09-23T01:59:17.938Z,0
2017-09-23T02:00:17.919Z,0
2017-09-23T02:01:18.274Z,0
2017-09-23T02:02:18.280Z,0
2017-09-23T02:03:18.311Z,0
2017-09-23T02:04:18.320Z,0
2017-09-23T02:05:17.697Z,0
2017-09-23T02:06:18.363Z,0
2017-09-23T02:07:18.053Z,0
2017-09-23T02:08:18.087Z,0
2017-09-23T02:09:18.413Z,0
2017-09-23T02:10:17.792Z,0
2017-09-23T02:11:18.123Z,0
2017-09-23T02:12:18.478Z,0
2017-09-23T02:13:18.164Z,0
2017-09-23T02:14:18.183Z,0
2017-09-23T02:15:19.184Z,0
2017-09-23T02:16:18.552Z,0
2017-09-23T02:17:18.252Z,0
2017-09-23T02:18:17.933Z,0
2017-09-23T02:19:18.274Z,0
2017-09-23T02:20:18.310Z,0
2017-09-23T02:21:17.994Z,0
2017-09-23T02:22:18.654Z,0
2017-09-23T02:23:18.026Z,0
2017-09-23T02:24:18.689Z,0
2017-09-23T02:25:18.710Z,0
2017-09-23T02:26:18.083Z,0
2017-09-23T02:27:18.809Z,0
2017-09-23T02:28:18.117Z,0
2017-09-23T02:29:18.869Z,0
2017-09-23T02:30:19.321Z,0
2017-09-23T02:31:18.498Z,0
2017-09-23T02:32:19.088Z,0
2017-09-23T02:33:17.891Z,0
2017-09-23T02:34:19.382Z,0
2017-09-23T02:35:18.574Z,0
2017-09-23T02:36:18.589Z,0
2017-09-23T02:37:18.289Z,0
2017-09-23T02:38:18.638Z,0
2017-09-23T02:39:19.462Z,0
2017-09-23T02:40:19.392Z,0
2017-09-23T02:41:18.804Z,0
2017-09-23T02:42:18.388Z,0
2017-09-23T02:43:19.093Z,0
2017-09-23T02:44:18.420Z,0
2017-09-23T02:45:18.756Z,0
2017-09-23T02:46:19.106Z,0
2017-09-23T02:47:19.454Z,0
2017-09-23T02:48:18.890Z,0
2017-09-23T02:49:18.829Z,0
2017-09-23T02:50:19.545Z,0
2017-09-23T02:51:19.187Z,0
2017-09-23T02:52:18.564Z,0
2017-09-23T02:53:18.709Z,0
2017-09-23T02:54:19.006Z,0
2017-09-23T02:55:19.259Z,0
2017-09-23T02:56:19.450Z,0
2017-09-23T02:57:19.471Z,0
2017-09-23T02:58:19.637Z,0
2017-09-23T02:59:18.364Z,0
2017-09-23T03:00:19.667Z,0
2017-09-23T03:01:18.854Z,0
2017-09-23T03:02:19.090Z,0
2017-09-23T03:03:19.407Z,0
2017-09-23T03:04:19.164Z,0
2017-09-23T03:05:18.914Z,0
2017-09-23T03:06:19.138Z,0
2017-09-23T03:07:19.168Z,0
2017-09-23T03:08:19.177Z,0
2017-09-23T03:09:19.199Z,0
2017-09-23T03:10:19.217Z,0
2017-09-23T03:11:19.644Z,0
2017-09-23T03:12:19.666Z,0
2017-09-23T03:13:19.357Z,0
2017-09-23T03:14:18.971Z,0
2017-09-23T03:15:19.304Z,0
2017-09-23T03:16:19.323Z,0
2017-09-23T03:17:19.988Z,0
2017-09-23T03:18:18.834Z,0
2017-09-23T03:19:19.691Z,0
2017-09-23T03:20:19.723Z,0
2017-09-23T03:21:19.248Z,0
2017-09-23T03:22:19.135Z,0
2017-09-23T03:23:19.972Z,0
2017-09-23T03:24:19.492Z,0
2017-09-23T03:25:19.488Z,0
2017-09-23T03:26:19.539Z,0
2017-09-23T03:27:19.646Z,0
2017-09-23T03:28:19.946Z,0
2017-09-23T03:29:19.883Z,0
2017-09-23T03:30:19.921Z,0
2017-09-23T03:31:19.602Z,0
2017-09-23T03:32:18.964Z,0
2017-09-23T03:33:18.990Z,0
2017-09-23T03:34:19.647Z,0
2017-09-23T03:35:20.073Z,0
2017-09-23T03:36:20.332Z,0
2017-09-23T03:37:19.710Z,0
2017-09-23T03:38:19.400Z,0
2017-09-23T03:39:19.731Z,0
2017-09-23T03:40:19.759Z,0
2017-09-23T03:41:20.664Z,0
2017-09-23T03:42:19.793Z,0
2017-09-23T03:43:20.139Z,0
2017-09-23T03:44:20.292Z,0
2017-09-23T03:45:20.053Z,0
2017-09-23T03:46:19.864Z,0
2017-09-23T03:47:19.878Z,0
2017-09-23T03:48:20.023Z,0
2017-09-23T03:49:20.124Z,0
2017-09-23T03:50:20.117Z,0
2017-09-23T03:51:19.476Z,0
2017-09-23T03:52:20.170Z,0
2017-09-23T03:53:20.434Z,0
2017-09-23T03:54:20.114Z,0
2017-09-23T03:55:20.449Z,0
2017-09-23T03:56:20.126Z,0
2017-09-23T03:57:20.168Z,0
2017-09-23T03:58:20.157Z,0
2017-09-23T03:59:20.600Z,0
2017-09-23T04:00:20.622Z,0
2017-09-23T04:01:20.456Z,0
2017-09-23T04:02:19.830Z,0
2017-09-23T04:03:20.517Z,0
2017-09-23T04:04:20.191Z,0
2017-09-23T04:05:20.010Z,0
2017-09-23T04:06:20.347Z,0
2017-09-23T04:07:19.927Z,0
2017-09-23T04:08:20.425Z,0
2017-09-23T04:09:19.949Z,0
2017-09-23T04:10:20.634Z,0
2017-09-23T04:11:20.641Z,0
2017-09-23T04:12:20.007Z,0
2017-09-23T04:13:20.032Z,0
2017-09-23T04:14:21.011Z,0
2017-09-23T04:15:19.737Z,0
2017-09-23T04:16:20.730Z,0
2017-09-23T04:17:20.746Z,0
2017-09-23T04:18:20.113Z,0
2017-09-23T04:19:20.584Z,0
2017-09-23T04:20:20.802Z,0
2017-09-23T04:21:20.813Z,0
2017-09-23T04:22:20.515Z,0
2017-09-23T04:23:20.724Z,0
2017-09-23T04:24:20.221Z,0
2017-09-23T04:25:20.874Z,0
2017-09-23T04:26:20.271Z,0
2017-09-23T04:27:20.280Z,0
2017-09-23T04:28:21.307Z,0
2017-09-23T04:29:20.649Z,0
2017-09-23T04:30:20.646Z,0
2017-09-23T04:31:20.348Z,0
2017-09-23T04:32:20.769Z,0
2017-09-23T04:33:20.774Z,0
2017-09-23T04:34:20.801Z,0
2017-09-23T04:35:20.418Z,0
2017-09-23T04:36:20.801Z,0
2017-09-23T04:37:20.800Z,0
2017-09-23T04:38:21.128Z,0
2017-09-23T04:39:21.130Z,0
2017-09-23T04:40:20.919Z,0
2017-09-23T04:41:20.842Z,0
2017-09-23T04:42:21.192Z,0
2017-09-23T04:43:21.212Z,0
2017-09-23T04:44:21.215Z,0
2017-09-23T04:45:20.638Z,0
2017-09-23T04:46:21.102Z,0
2017-09-23T04:47:20.973Z,0
2017-09-23T04:48:20.655Z,0
2017-09-23T04:49:20.984Z,0
2017-09-23T04:50:21.011Z,0
2017-09-23T04:51:21.025Z,0
2017-09-23T04:52:21.039Z,0
2017-09-23T04:53:21.058Z,0
2017-09-23T04:54:20.779Z,0
2017-09-23T04:55:20.776Z,0
2017-09-23T04:56:21.428Z,0
2017-09-23T04:57:21.128Z,0
2017-09-23T04:58:21.886Z,0
2017-09-23T04:59:21.159Z,0
2017-09-23T05:00:21.336Z,0
2017-09-23T05:01:21.202Z,0
2017-09-23T05:02:21.529Z,0
2017-09-23T05:03:21.229Z,0
2017-09-23T05:04:21.690Z,0
2017-09-23T05:05:20.951Z,0
2017-09-23T05:06:21.285Z,0
2017-09-23T05:07:21.301Z,0
2017-09-23T05:08:21.713Z,0
2017-09-23T05:09:21.882Z,0
2017-09-23T05:10:21.030Z,0
2017-09-23T05:11:21.051Z,0
2017-09-23T05:12:21.717Z,0
2017-09-23T05:13:22.061Z,0
2017-09-23T05:14:21.529Z,0
2017-09-23T05:15:21.121Z,0
2017-09-23T05:16:21.608Z,0
2017-09-23T05:17:21.897Z,0
2017-09-23T05:18:22.149Z,0
2017-09-23T05:19:21.539Z,0
2017-09-23T05:20:21.209Z,0
2017-09-23T05:21:21.556Z,0
2017-09-23T05:22:20.920Z,0
2017-09-23T05:23:21.264Z,0
2017-09-23T05:24:22.033Z,0
2017-09-23T05:25:22.348Z,0
2017-09-23T05:26:22.371Z,0
2017-09-23T05:27:21.770Z,0
2017-09-23T05:28:22.096Z,0
2017-09-23T05:29:21.374Z,0
2017-09-23T05:30:21.424Z,0
2017-09-23T05:31:21.089Z,0
2017-09-23T05:32:22.584Z,0
2017-09-23T05:33:22.260Z,0
2017-09-23T05:34:21.801Z,0
2017-09-23T05:35:21.480Z,0
2017-09-23T05:36:22.125Z,0
2017-09-23T05:37:21.836Z,0
2017-09-23T05:38:21.866Z,0
2017-09-23T05:39:22.236Z,0
2017-09-23T05:40:22.004Z,0
2017-09-23T05:41:22.327Z,0
2017-09-23T05:42:22.480Z,0
2017-09-23T05:43:22.651Z,0
2017-09-23T05:44:22.357Z,5
2017-09-23T05:45:22.365Z,5
2017-09-23T05:46:22.481Z,5
2017-09-23T05:47:22.025Z,5
2017-09-23T05:48:22.463Z,5
2017-09-23T05:49:22.059Z,5
2017-09-23T05:50:22.091Z,5
2017-09-23T05:51:22.556Z,5
2017-09-23T05:52:22.088Z,5
2017-09-23T05:53:22.113Z,5
2017-09-23T05:54:22.118Z,0
2017-09-23T05:55:21.494Z,0
2017-09-23T05:56:22.533Z,5
2017-09-23T05:57:22.670Z,5
2017-09-23T05:58:22.315Z,5
2017-09-23T05:59:22.844Z,5
2017-09-23T06:00:22.235Z,5
2017-09-23T06:01:22.249Z,5
2017-09-23T06:02:21.941Z,5
2017-09-23T06:03:21.632Z,5
2017-09-23T06:04:22.418Z,5
2017-09-23T06:05:21.996Z,5
2017-09-23T06:06:22.651Z,5
2017-09-23T06:07:23.005Z,5
2017-09-23T06:08:22.378Z,5
2017-09-23T06:09:22.904Z,5
2017-09-23T06:10:22.084Z,5
2017-09-23T06:11:23.081Z,5
2017-09-23T06:12:22.445Z,5
2017-09-23T06:13:22.137Z,5
2017-09-23T06:14:22.484Z,5
2017-09-23T06:15:22.169Z,5
2017-09-23T06:16:22.608Z,5
2017-09-23T06:17:22.846Z,5
2017-09-23T06:18:22.868Z,5
2017-09-23T06:19:22.252Z,5
2017-09-23T06:20:22.901Z,5
2017-09-23T06:21:22.606Z,5
2017-09-23T06:22:22.622Z,5
2017-09-23T06:23:22.959Z,5
2017-09-23T06:24:22.970Z,5
2017-09-23T06:25:22.752Z,5
2017-09-23T06:26:22.864Z,5
2017-09-23T06:27:23.014Z,5
2017-09-23T06:28:22.716Z,5
2017-09-23T06:29:23.177Z,5
2017-09-23T06:30:22.425Z,5
2017-09-23T06:31:22.448Z,5
2017-09-23T06:32:22.784Z,5
2017-09-23T06:33:22.503Z,5
2017-09-23T06:34:23.496Z,5
2017-09-23T06:35:22.527Z,5
2017-09-23T06:36:23.193Z,5
2017-09-23T06:37:22.973Z,5
2017-09-23T06:38:22.888Z,5
2017-09-23T06:39:23.631Z,5
2017-09-23T06:40:22.918Z,5
2017-09-23T06:41:22.615Z,5
2017-09-23T06:42:22.959Z,5
2017-09-23T06:43:22.981Z,5
2017-09-23T06:44:23.690Z,5
2017-09-23T06:45:23.788Z,10
2017-09-23T06:46:22.703Z,10
2017-09-23T06:47:23.042Z,10
2017-09-23T06:48:23.054Z,10
2017-09-23T06:49:23.517Z,10
2017-09-23T06:50:23.749Z,10
2017-09-23T06:51:23.118Z,10
2017-09-23T06:52:23.466Z,10
2017-09-23T06:53:22.510Z,10
2017-09-23T06:54:37.743Z,15
2017-09-23T06:55:23.514Z,15
2017-09-23T06:56:23.541Z,15
2017-09-23T06:57:23.866Z,15
2017-09-23T06:58:23.879Z,15
2017-09-23T06:59:22.942Z,15
2017-09-23T07:00:23.924Z,15
2017-09-23T07:01:23.300Z,15
2017-09-23T07:02:23.627Z,15
2017-09-23T07:03:23.327Z,15
2017-09-23T07:04:23.665Z,20
2017-09-23T07:05:23.688Z,20
2017-09-23T07:06:23.053Z,20
2017-09-23T07:07:23.715Z,20
2017-09-23T07:08:23.732Z,20
2017-09-23T07:09:23.858Z,20
2017-09-23T07:10:23.989Z,20
2017-09-23T07:11:23.344Z,20
2017-09-23T07:12:23.980Z,20
2017-09-23T07:13:23.974Z,20
2017-09-23T07:14:23.393Z,20
2017-09-23T07:15:23.421Z,20
2017-09-23T07:16:23.381Z,20
2017-09-23T07:17:24.008Z,20
2017-09-23T07:18:23.719Z,20
2017-09-23T07:19:23.722Z,20
2017-09-23T07:20:23.585Z,20
2017-09-23T07:21:23.671Z,20
2017-09-23T07:22:23.132Z,20
2017-09-23T07:23:23.999Z,20
2017-09-23T07:24:24.238Z,25
2017-09-23T07:25:23.440Z,25
2017-09-23T07:26:23.731Z,20
2017-09-23T07:27:24.501Z,20
2017-09-23T07:28:24.195Z,20
2017-09-23T07:29:23.458Z,20
2017-09-23T07:30:24.044Z,20
2017-09-23T07:31:23.835Z,15
2017-09-23T07:32:23.236Z,15
2017-09-23T07:33:23.884Z,15
2017-09-23T07:34:24.198Z,15
2017-09-23T07:35:24.333Z,10
2017-09-23T07:36:23.975Z,10
2017-09-23T07:37:24.189Z,10
2017-09-23T07:38:24.030Z,10
2017-09-23T07:39:24.810Z,10
2017-09-23T07:40:23.651Z,10
2017-09-23T07:41:23.686Z,10
2017-09-23T07:42:24.510Z,10
2017-09-23T07:43:23.873Z,10
2017-09-23T07:44:23.730Z,10
2017-09-23T07:45:24.122Z,10
2017-09-23T07:46:24.430Z,10
2017-09-23T07:47:24.625Z,10
2017-09-23T07:48:24.529Z,10
2017-09-23T07:49:23.857Z,10
2017-09-23T07:50:23.890Z,10
2017-09-23T07:51:24.219Z,10
2017-09-23T07:52:23.992Z,10
2017-09-23T07:53:24.534Z,10
2017-09-23T07:54:24.572Z,10
2017-09-23T07:55:24.255Z,10
2017-09-23T07:56:24.050Z,10
2017-09-23T07:57:24.615Z,10
2017-09-23T07:58:25.080Z,10
2017-09-23T07:59:24.014Z,10
2017-09-23T08:00:24.358Z,10
2017-09-23T08:01:24.469Z,10
2017-09-23T08:02:24.827Z,10
2017-09-23T08:03:24.496Z,10
2017-09-23T08:04:24.528Z,10
2017-09-23T08:05:24.119Z,10
2017-09-23T08:06:24.132Z,10
2017-09-23T08:07:24.796Z,10
2017-09-23T08:08:24.819Z,10
2017-09-23T08:09:24.194Z,10
2017-09-23T08:10:24.304Z,10
2017-09-23T08:11:24.870Z,10
2017-09-23T08:12:24.892Z,10
2017-09-23T08:13:24.664Z,10
2017-09-23T08:14:24.820Z,10
2017-09-23T08:15:25.467Z,10
2017-09-23T08:16:25.132Z,10
2017-09-23T08:17:25.136Z,10
2017-09-23T08:18:25.145Z,10
2017-09-23T08:19:25.145Z,10
2017-09-23T08:20:24.487Z,10
2017-09-23T08:21:25.449Z,10
2017-09-23T08:22:24.451Z,10
2017-09-23T08:23:24.453Z,10
2017-09-23T08:24:25.115Z,10
2017-09-23T08:25:24.492Z,10
2017-09-23T08:26:24.834Z,10
2017-09-23T08:27:25.287Z,10
2017-09-23T08:28:25.277Z,10
2017-09-23T08:29:24.571Z,10
2017-09-23T08:30:24.587Z,10
2017-09-23T08:31:24.918Z,10
2017-09-23T08:32:25.316Z,10
2017-09-23T08:33:25.316Z,10
2017-09-23T08:34:25.326Z,10
2017-09-23T08:35:24.670Z,10
2017-09-23T08:36:24.699Z,10
2017-09-23T08:37:25.031Z,10
2017-09-23T08:38:24.736Z,10
2017-09-23T08:39:25.727Z,10
2017-09-23T08:40:25.462Z,10
2017-09-23T08:41:25.115Z,10
2017-09-23T08:42:25.780Z,10
2017-09-23T08:43:25.157Z,10
2017-09-23T08:44:25.816Z,10
2017-09-23T08:45:25.189Z,10
2017-09-23T08:46:25.540Z,10
2017-09-23T08:47:24.906Z,10
2017-09-23T08:48:25.569Z,10
2017-09-23T08:49:25.269Z,10
2017-09-23T08:50:24.955Z,10
2017-09-23T08:51:25.941Z,10
2017-09-23T08:52:25.328Z,10
2017-09-23T08:53:25.669Z,10
2017-09-23T08:54:25.358Z,10
2017-09-23T08:55:25.382Z,10
2017-09-23T08:56:26.053Z,10
2017-09-23T08:57:25.748Z,10
2017-09-23T08:58:25.117Z,10
2017-09-23T08:59:26.139Z,10
2017-09-23T09:00:25.382Z,15
2017-09-23T09:01:24.864Z,15
2017-09-23T09:02:25.852Z,15
2017-09-23T09:03:25.549Z,15
2017-09-23T09:04:25.558Z,15
2017-09-23T09:05:25.262Z,15
2017-09-23T09:06:25.593Z,15
2017-09-23T09:07:25.625Z,15
2017-09-23T09:08:25.316Z,15
2017-09-23T09:09:25.657Z,15
2017-09-23T09:10:26.007Z,15
2017-09-23T09:11:26.023Z,15
2017-09-23T09:12:25.735Z,15
2017-09-23T09:13:25.413Z,15
2017-09-23T09:14:26.101Z,15
2017-09-23T09:15:26.098Z,15
2017-09-23T09:16:25.944Z,15
2017-09-23T09:17:25.594Z,15
2017-09-23T09:18:25.933Z,15
2017-09-23T09:19:26.216Z,15
2017-09-23T09:20:26.198Z,15
2017-09-23T09:21:26.550Z,15
2017-09-23T09:22:26.029Z,15
2017-09-23T09:23:25.956Z,15
2017-09-23T09:24:26.379Z,15
2017-09-23T09:25:25.664Z,15
2017-09-23T09:26:25.674Z,15
2017-09-23T09:27:26.350Z,15
2017-09-23T09:28:26.047Z,15
2017-09-23T09:29:26.065Z,15
2017-09-23T09:30:26.074Z,15
2017-09-23T09:31:26.097Z,15
2017-09-23T09:32:26.571Z,20
2017-09-23T09:33:26.589Z,20
2017-09-23T09:34:25.513Z,15
2017-09-23T09:35:26.676Z,15
2017-09-23T09:36:26.522Z,15
2017-09-23T09:37:26.546Z,15
2017-09-23T09:38:26.560Z,15
2017-09-23T09:39:25.945Z,15
2017-09-23T09:40:26.600Z,15
2017-09-23T09:41:26.634Z,15
2017-09-23T09:42:26.326Z,15
2017-09-23T09:43:26.559Z,15
2017-09-23T09:44:27.326Z,15
2017-09-23T09:45:26.072Z,15
2017-09-23T09:46:26.087Z,15
2017-09-23T09:47:27.069Z,15
2017-09-23T09:48:27.108Z,15
2017-09-23T09:49:27.005Z,15
2017-09-23T09:50:27.354Z,20
2017-09-23T09:51:26.837Z,20
2017-09-23T09:52:26.533Z,20
2017-09-23T09:53:27.195Z,20
2017-09-23T09:54:26.905Z,25
2017-09-23T09:55:26.375Z,25
2017-09-23T09:56:26.698Z,25
2017-09-23T09:57:27.278Z,20
2017-09-23T09:58:26.666Z,20
2017-09-23T09:59:26.683Z,20
2017-09-23T10:00:27.052Z,20
2017-09-23T10:01:26.728Z,20
2017-09-23T10:02:26.753Z,20
2017-09-23T10:03:27.400Z,20
2017-09-23T10:04:26.156Z,20
2017-09-23T10:05:27.454Z,20
2017-09-23T10:06:26.835Z,20
2017-09-23T10:07:26.575Z,20
2017-09-23T10:08:26.557Z,20
2017-09-23T10:09:26.574Z,20
2017-09-23T10:10:27.328Z,20
2017-09-23T10:11:26.618Z,20
2017-09-23T10:12:27.360Z,20
2017-09-23T10:13:26.976Z,20
2017-09-23T10:14:27.368Z,20
2017-09-23T10:15:27.328Z,25
2017-09-23T10:16:27.034Z,25
2017-09-23T10:17:27.482Z,25
2017-09-23T10:18:27.090Z,25
2017-09-23T10:19:27.434Z,25
2017-09-23T10:20:27.137Z,25
2017-09-23T10:21:27.502Z,25
2017-09-23T10:22:27.501Z,25
2017-09-23T10:23:26.875Z,25
2017-09-23T10:24:27.219Z,25
2017-09-23T10:25:27.571Z,25
2017-09-23T10:26:26.935Z,25
2017-09-23T10:27:27.615Z,25
2017-09-23T10:28:26.978Z,30
2017-09-23T10:29:27.010Z,30
2017-09-23T10:30:27.664Z,30
2017-09-23T10:31:27.377Z,30
2017-09-23T10:32:27.388Z,30
2017-09-23T10:33:27.097Z,30
2017-09-23T10:34:27.539Z,30
2017-09-23T10:35:27.780Z,30
2017-09-23T10:36:28.205Z,30
2017-09-23T10:37:27.814Z,35
2017-09-23T10:38:27.208Z,35
2017-09-23T10:39:27.762Z,35
2017-09-23T10:40:27.897Z,30
2017-09-23T10:41:27.264Z,30
2017-09-23T10:42:27.937Z,35
2017-09-23T10:43:27.632Z,40
2017-09-23T10:44:27.654Z,35
2017-09-23T10:45:27.679Z,35
2017-09-23T10:46:28.035Z,30
2017-09-23T10:47:27.406Z,30
2017-09-23T10:48:27.784Z,30
2017-09-23T10:49:27.774Z,30
2017-09-23T10:50:27.789Z,30
2017-09-23T10:51:27.816Z,30
2017-09-23T10:52:28.154Z,30
2017-09-23T10:53:28.181Z,30
2017-09-23T10:54:27.880Z,35
2017-09-23T10:55:27.264Z,35
2017-09-23T10:56:27.925Z,35
2017-09-23T10:57:28.358Z,35
2017-09-23T10:58:28.332Z,40
2017-09-23T10:59:27.799Z,40
2017-09-23T11:00:28.021Z,40
2017-09-23T11:01:28.037Z,40
2017-09-23T11:02:27.793Z,40
2017-09-23T11:03:28.407Z,45
2017-09-23T11:04:27.786Z,40
2017-09-23T11:05:28.458Z,40
2017-09-23T11:06:28.164Z,35
2017-09-23T11:07:28.627Z,35
2017-09-23T11:08:28.638Z,35
2017-09-23T11:09:28.231Z,35
2017-09-23T11:10:28.729Z,35
2017-09-23T11:11:28.829Z,35
2017-09-23T11:12:27.834Z,35
2017-09-23T11:13:27.827Z,35
2017-09-23T11:14:28.147Z,35
2017-09-23T11:15:28.369Z,35
2017-09-23T11:16:29.126Z,40
2017-09-23T11:17:27.778Z,40
2017-09-23T11:18:28.524Z,40
2017-09-23T11:19:28.791Z,40
2017-09-23T11:20:27.841Z,40
2017-09-23T11:21:28.828Z,40
2017-09-23T11:22:28.296Z,40
2017-09-23T11:23:28.876Z,40
2017-09-23T11:24:28.308Z,40
2017-09-23T11:25:28.599Z,40
2017-09-23T11:26:28.623Z,45
2017-09-23T11:27:28.663Z,45
2017-09-23T11:28:28.402Z,45
2017-09-23T11:29:28.724Z,45
2017-09-23T11:30:28.712Z,45
2017-09-23T11:31:28.422Z,45
2017-09-23T11:32:29.096Z,45
2017-09-23T11:33:29.140Z,50
2017-09-23T11:34:28.489Z,50
2017-09-23T11:35:29.157Z,50
2017-09-23T11:36:28.948Z,50
2017-09-23T11:37:29.208Z,50
2017-09-23T11:38:28.910Z,50
2017-09-23T11:39:28.611Z,50
2017-09-23T11:40:29.061Z,45
2017-09-23T11:41:28.979Z,50
2017-09-23T11:42:28.817Z,50
2017-09-23T11:43:29.028Z,50
2017-09-23T11:44:29.376Z,50
2017-09-23T11:45:29.218Z,50
2017-09-23T11:46:28.783Z,45
2017-09-23T11:47:28.589Z,40
2017-09-23T11:48:29.148Z,40
2017-09-23T11:49:28.937Z,45
2017-09-23T11:50:28.594Z,45
2017-09-23T11:51:29.235Z,45
2017-09-23T11:52:29.434Z,40
2017-09-23T11:53:29.268Z,45
2017-09-23T11:54:29.289Z,45
2017-09-23T11:55:29.316Z,45
2017-09-23T11:56:29.347Z,50
2017-09-23T11:57:29.440Z,40
2017-09-23T11:58:29.403Z,35
2017-09-23T11:59:29.729Z,25
2017-09-23T12:00:29.434Z,25
2017-09-23T12:01:29.474Z,20
2017-09-23T12:02:29.911Z,20
2017-09-23T12:03:29.849Z,20
2017-09-23T12:04:29.111Z,20
2017-09-23T12:05:29.561Z,20
2017-09-23T12:06:28.950Z,20
2017-09-23T12:07:29.296Z,20
2017-09-23T12:08:29.421Z,20
2017-09-23T12:09:29.036Z,20
2017-09-23T12:10:30.006Z,20
2017-09-23T12:11:29.441Z,20
2017-09-23T12:12:29.732Z,20
2017-09-23T12:13:29.774Z,20
2017-09-23T12:14:29.911Z,25
2017-09-23T12:15:30.212Z,25
2017-09-23T12:16:29.926Z,25
2017-09-23T12:17:29.884Z,25
2017-09-23T12:18:29.881Z,30
2017-09-23T12:19:29.908Z,30
2017-09-23T12:20:30.257Z,30
2017-09-23T12:21:29.715Z,30
2017-09-23T12:22:30.254Z,30
2017-09-23T12:23:29.690Z,35
2017-09-23T12:24:29.387Z,35
2017-09-23T12:25:29.638Z,40
2017-09-23T12:26:29.751Z,40
2017-09-23T12:27:30.392Z,40
2017-09-23T12:28:29.489Z,45
2017-09-23T12:29:30.614Z,45
2017-09-23T12:30:30.171Z,50
2017-09-23T12:31:30.201Z,50
2017-09-23T12:32:30.112Z,50
2017-09-23T12:33:29.931Z,50
2017-09-23T12:34:29.811Z,55
2017-09-23T12:35:30.183Z,50
2017-09-23T12:36:29.992Z,45
2017-09-23T12:37:30.349Z,35
2017-09-23T12:38:29.728Z,30
2017-09-23T12:39:30.401Z,30
2017-09-23T12:40:30.104Z,25
2017-09-23T12:41:30.460Z,25
2017-09-23T12:42:31.121Z,25
2017-09-23T12:43:30.493Z,25
2017-09-23T12:44:30.203Z,25
2017-09-23T12:45:30.261Z,25
2017-09-23T12:46:30.565Z,25
2017-09-23T12:47:30.601Z,30
2017-09-23T12:48:30.613Z,30
2017-09-23T12:49:30.976Z,30
2017-09-23T12:50:30.062Z,30
2017-09-23T12:51:31.016Z,30
2017-09-23T12:52:30.730Z,30
2017-09-23T12:53:30.119Z,30
2017-09-23T12:54:30.476Z,30
2017-09-23T12:55:31.198Z,30
2017-09-23T12:56:30.869Z,30
2017-09-23T12:57:30.531Z,30
2017-09-23T12:58:31.192Z,30
2017-09-23T12:59:31.219Z,30
2017-09-23T13:00:30.607Z,30
2017-09-23T13:01:31.039Z,35
2017-09-23T13:02:31.138Z,35
2017-09-23T13:03:30.791Z,35
2017-09-23T13:04:30.976Z,35
2017-09-23T13:05:31.467Z,40
2017-09-23T13:06:31.706Z,35
2017-09-23T13:07:31.183Z,35
2017-09-23T13:08:31.649Z,35
2017-09-23T13:09:30.921Z,35
2017-09-23T13:10:31.022Z,35
2017-09-23T13:11:31.980Z,40
2017-09-23T13:12:31.004Z,40
2017-09-23T13:13:30.603Z,40
2017-09-23T13:14:31.270Z,40
2017-09-23T13:15:31.731Z,40
2017-09-23T13:16:31.493Z,40
2017-09-23T13:17:31.478Z,40
2017-09-23T13:18:31.806Z,40
2017-09-23T13:19:31.720Z,35
2017-09-23T13:20:31.428Z,35
2017-09-23T13:21:31.470Z,35
2017-09-23T13:22:31.481Z,35
2017-09-23T13:23:30.870Z,30
2017-09-23T13:24:31.512Z,30
2017-09-23T13:25:31.880Z,30
2017-09-23T13:26:32.086Z,30
2017-09-23T13:27:31.936Z,30
2017-09-23T13:28:31.943Z,30
2017-09-23T13:29:31.019Z,30
2017-09-23T13:30:31.663Z,30
2017-09-23T13:31:31.369Z,30
2017-09-23T13:32:31.392Z,35
2017-09-23T13:33:31.740Z,40
2017-09-23T13:34:32.159Z,40
2017-09-23T13:35:31.832Z,40
2017-09-23T13:36:31.829Z,35
2017-09-23T13:37:31.847Z,35
2017-09-23T13:38:31.553Z,35
2017-09-23T13:39:32.299Z,35
2017-09-23T13:40:32.305Z,35
2017-09-23T13:41:31.669Z,40
2017-09-23T13:42:32.606Z,40
2017-09-23T13:43:31.989Z,40
2017-09-23T13:44:31.698Z,40
2017-09-23T13:45:32.008Z,35
2017-09-23T13:46:32.074Z,35
2017-09-23T13:47:31.774Z,35
2017-09-23T13:48:32.130Z,35
2017-09-23T13:49:31.653Z,35
2017-09-23T13:50:32.323Z,35
2017-09-23T13:51:32.047Z,35
2017-09-23T13:52:32.662Z,35
2017-09-23T13:53:31.862Z,35
2017-09-23T13:54:32.711Z,30
2017-09-23T13:55:32.305Z,30
2017-09-23T13:56:32.173Z,30
2017-09-23T13:57:32.083Z,30
2017-09-23T13:58:32.475Z,30
2017-09-23T13:59:32.597Z,30
2017-09-23T14:00:32.418Z,30
2017-09-23T14:01:32.783Z,25
2017-09-23T14:02:32.809Z,25
2017-09-23T14:03:32.518Z,25
2017-09-23T14:04:32.201Z,25
2017-09-23T14:05:31.916Z,25
2017-09-23T14:06:32.292Z,25
2017-09-23T14:07:32.690Z,25
2017-09-23T14:08:32.667Z,25
2017-09-23T14:09:32.420Z,25
2017-09-23T14:10:32.461Z,25
2017-09-23T14:11:32.391Z,25
2017-09-23T14:12:33.065Z,25
2017-09-23T14:13:32.487Z,25
2017-09-23T14:14:32.504Z,25
2017-09-23T14:15:32.490Z,25
2017-09-23T14:16:33.250Z,30
2017-09-23T14:17:33.030Z,30
2017-09-23T14:18:32.623Z,30
2017-09-23T14:19:33.276Z,30
2017-09-23T14:20:32.970Z,30
2017-09-23T14:21:33.279Z,30
2017-09-23T14:22:32.727Z,30
2017-09-23T14:23:33.058Z,35
2017-09-23T14:24:33.483Z,35
2017-09-23T14:25:33.415Z,35
2017-09-23T14:26:33.744Z,35
2017-09-23T14:27:33.449Z,35
2017-09-23T14:28:33.463Z,35
2017-09-23T14:29:33.182Z,35
2017-09-23T14:30:33.532Z,30